Historique des mesures à Cassis (13260), France
Quotidien Résumé Juin 6, 2017 Unités:  Métrique    US   Métrique/US
« Précédent (Jour)
Suivant (Jour) »
Quotidien Hebdomadaire Mensuel Annuel Période au choix
  Maximum: Minimum: Moyenne:
Température: TemperatureC °C 17.4 °C 21 °C
Point de rosée: DewpointC °C 6.7 °C 11.6 °C
Humidité: Humidity % 34 % 53 %
Vitesse du vent: 0 km/h 0 km/h 15.4 km/h
Rafales: 0 km/h - -
Vent:- - SSW
Pression: PressurehPa hPa 1006.0 hPa -
Précipitations: 0.0 mm    
Historical Graphs
 
 
Mesures pour : Juin 6, 2017
Heure Temperature Point de rosée Pression Vent Vitesse du vent Rafales Humidité Pluie (par heure) Conditions
TemperatureC °C DewpointC °C PressurehPa hPa Calm     Humidity % HourlyPrecipMM mm SoftwareType W/m2
00:10 20.6 °C 13.3 °C 1007.0 hPa Calm     63 % 0.0 mm open2300-1.11 W/m2
01:10 19.6 °C 12.8 °C 1006.7 hPa Calm   2.9 km/h 65 % 0.0 mm open2300-1.11 W/m2
02:10 18.9 °C 12.2 °C 1006.7 hPa NNE 2.3 km/h 2.9 km/h 65 % 0.0 mm open2300-1.11 W/m2
03:10 18.5 °C 12.0 °C 1006.7 hPa NNE 2.3 km/h 3.4 km/h 66 % 0.0 mm open2300-1.11 W/m2
04:10 18.1 °C 12.1 °C 1006.3 hPa NNE 3.4 km/h 3.4 km/h 68 % 0.0 mm open2300-1.11 W/m2
05:10 17.9 °C 12.4 °C 1006.0 hPa Calm   2.3 km/h 70 % 0.0 mm open2300-1.11 W/m2
06:10 17.4 °C 12.3 °C 1006.3 hPa Calm   2.3 km/h 72 % 0.0 mm open2300-1.11 W/m2
07:10 17.8 °C 12.9 °C 1006.3 hPa Calm     73 % 0.0 mm open2300-1.11 W/m2
08:10 20.9 °C 15.2 °C 1006.7 hPa Calm     70 % 0.0 mm open2300-1.11 W/m2
09:10 20.8 °C 15.1 °C 1006.7 hPa South 7.6 km/h 7.6 km/h 70 % 0.0 mm open2300-1.11 W/m2
10:10 22.1 °C 15.9 °C 1007.3 hPa Calm   6.9 km/h 68 % 0.0 mm open2300-1.11 W/m2
11:10 25.6 °C 17.3 °C 1007.7 hPa Calm   7.6 km/h 60 % 0.0 mm open2300-1.11 W/m2
12:10 24.7 °C 14.4 °C 1008.0 hPa WNW 37 km/h 40.7 km/h 53 % 0.0 mm open2300-1.11 W/m2
13:10 25.4 °C 14.6 °C 1007.7 hPa West 27.7 km/h 27.7 km/h 51 % 0.0 mm open2300-1.11 W/m2
14:10 25.2 °C 14.6 °C 1008.0 hPa NW 24.3 km/h 27.2 km/h 52 % 0.0 mm open2300-1.11 W/m2
15:10 24.5 °C 13.1 °C 1007.7 hPa WNW 31.4 km/h 59.1 km/h 49 % 0.0 mm open2300-1.11 W/m2
16:10 24.5 °C 12.8 °C 1007.7 hPa NW 55.7 km/h 55.7 km/h 48 % 0.0 mm open2300-1.11 W/m2
17:10 25.4 °C 12.2 °C 1007.3 hPa West 41.2 km/h 41.2 km/h 44 % 0.0 mm open2300-1.11 W/m2
18:11 24.8 °C 9.5 °C 1007.7 hPa NW 34.8 km/h 34.8 km/h 38 % 0.0 mm open2300-1.11 W/m2
19:10 23.9 °C 7.0 °C 1007.7 hPa WNW 39.9 km/h 39.9 km/h 34 % 0.0 mm open2300-1.11 W/m2
20:10 23.1 °C 6.7 °C 1008.0 hPa NNE 27.7 km/h 40.7 km/h 35 % 0.0 mm open2300-1.11 W/m2
21:10 22.0 °C 7.0 °C 1009.0 hPa NNE 11.6 km/h 37.5 km/h 38 % 0.0 mm open2300-1.11 W/m2
22:10 21.4 °C 7.3 °C 1009.7 hPa WNW 19.2 km/h 34.1 km/h 40 % 0.0 mm open2300-1.11 W/m2
23:10 20.8 °C 7.1 °C 1010.4 hPa NNW 18.7 km/h 41.7 km/h 41 % 0.0 mm open2300-1.11 W/m2
Observations météo à CASSIS
WU-History script by Weather Underground - 1 mb